Pride — ZDFD7 — position and weather

sailwx.info

Track history (hours):
 
Tides and Currents Weather Stations Pressure Air Temp Water Temp Dewpoint Dewpoint Depression Visibility Wind Speed Wind Dir Waves Ship Positions

Pride

Last reported at 2014-Dec-12 09:16 UTC. Time now 2014-Dec-21 05:28 UTC.
Position N 54°19' E 004°59'.
Warning: this ship's position is 8 days out of date.

Length 88 m; draft 4.3 m.

Type: Ship. MMSI: 236166000.

Date/timePositionNaut miles runAvg speedWind from/ knotsBaromVisibWave heightAir tempDewpointWater temp
2014-Dec-12 09:16N 54°19' E 004°59'7 9.2
2014-Dec-12 08:31N 54°12' E 004°58'9 9.3
2014-Dec-12 07:32N 54°03' E 004°56'27 9.0
2014-Dec-12 04:31N 53°36' E 004°49'9 8.8
2014-Dec-12 03:33N 53°28' E 004°45'26 8.4
2014-Dec-12 00:30N 53°04' E 004°27'8 8.4
2014-Dec-11 23:33N 52°57' E 004°21'8 8.2
2014-Dec-11 22:34N 52°50' E 004°15'9 8.9
2014-Dec-11 21:33N 52°43' E 004°05'10 9.4
2014-Dec-11 20:28N 52°36' E 003°53'30 4.7
2014-Dec-11 14:04N 52°07' E 003°36'3 3.9
2014-Dec-11 13:24N 52°06' E 003°40'3 3.8
2014-Dec-11 12:33N 52°05' E 003°45'4 4.3
2014-Dec-11 11:33N 52°04' E 003°52'5 4.5
2014-Dec-11 10:33N 52°02' E 003°58'7 7.1
2014-Dec-11 09:33N 51°58' E 004°08'10 9.9
2014-Dec-11 08:33N 51°54' E 004°23'1 1.4
2014-Dec-11 07:30N 51°55' E 004°25'0 0.0
2014-Dec-11 06:31N 51°55' E 004°25'0 0.0
2014-Dec-11 05:27N 51°55' E 004°25'0 0.0
2014-Dec-11 04:31N 51°55' E 004°25'0 0.0
2014-Dec-11 03:29N 51°55' E 004°25'0 0.0
2014-Dec-11 02:33N 51°55' E 004°25'1 1.0
2014-Dec-11 01:34N 51°54' E 004°26'2 1.6
2014-Dec-11 00:34N 51°54' E 004°24'3 2.7
2014-Dec-10 23:28N 51°54' E 004°28'0 0.0
2014-Dec-10 22:31N 51°54' E 004°28'0 0.0
2014-Dec-10 21:27N 51°54' E 004°28'0 0.0
2014-Dec-10 20:30N 51°54' E 004°28'0 0.0
2014-Dec-10 19:29N 51°54' E 004°28'0 0.0
2014-Dec-10 18:33N 51°54' E 004°28'0 0.0
2014-Dec-10 17:27N 51°54' E 004°28'0 0.0
2014-Dec-10 16:32N 51°54' E 004°28'0 0.0
2014-Dec-10 15:33N 51°54' E 004°28'0 0.0
2014-Dec-10 14:29N 51°54' E 004°28'0 0.1
2014-Dec-10 13:32N 51°54' E 004°28'1 1.5
2014-Dec-10 12:33N 51°54' E 004°26'0 0.0
2014-Dec-10 11:26N 51°54' E 004°26'0 0.0
2014-Dec-10 10:32N 51°54' E 004°26'0 0.0
2014-Dec-10 09:33N 51°54' E 004°26'0 0.0
2014-Dec-10 08:32N 51°54' E 004°26'0 0.0
2014-Dec-10 07:30N 51°54' E 004°26'0 0.0
2014-Dec-10 06:31N 51°54' E 004°26'0 0.0
2014-Dec-10 05:27N 51°54' E 004°26'0 0.0
2014-Dec-10 04:32N 51°54' E 004°26'0 0.0
2014-Dec-10 03:28N 51°54' E 004°26'0 0.0
2014-Dec-10 02:32N 51°54' E 004°26'0 0.0
2014-Dec-10 01:33N 51°54' E 004°26'0 0.0
2014-Dec-10 00:29N 51°54' E 004°26'0 0.0
2014-Dec-09 23:26N 51°54' E 004°26'0 0.0
2014-Dec-09 22:32N 51°54' E 004°26'0 0.0
2014-Dec-09 21:28N 51°54' E 004°26'0 0.0
2014-Dec-09 20:24N 51°54' E 004°26'0 0.0
2014-Dec-09 19:27N 51°54' E 004°26'0 0.0
2014-Dec-09 18:30N 51°54' E 004°26'3 3.5
2014-Dec-09 17:33N 51°54' E 004°20'1010.2
2014-Dec-09 16:33N 51°59' E 004°06'1110.6
2014-Dec-09 15:33N 52°02' E 003°50'10 8.5
2014-Dec-09 14:23N 52°12' E 003°46'2110.4
2014-Dec-09 12:23N 52°32' E 003°52'1011.2
2014-Dec-09 11:28N 52°42' E 003°55'57 9.5
2014-Dec-09 05:29N 53°31' E 004°44'8 9.0
2014-Dec-09 04:33N 53°33' E 004°58'1010.1
2014-Dec-09 03:33N 53°37' E 005°13'1110.6
2014-Dec-09 02:33N 53°41' E 005°30'1010.3
2014-Dec-09 01:33N 53°44' E 005°47'62 8.7
2014-Dec-08 18:31N 53°60' E 007°27'9 9.8
2014-Dec-08 17:33N 54°02' E 007°43'10 9.6
2014-Dec-08 16:33N 54°02' E 007°60'10 9.7
2014-Dec-08 15:33N 54°01' E 008°16'1111.2
2014-Dec-08 14:33N 53°58' E 008°35'9 9.5
2014-Dec-08 13:33N 53°51' E 008°46'8 8.1
2014-Dec-08 12:33N 53°51' E 008°59'6 5.9
2014-Dec-08 11:32N 53°54' E 009°09'2 2.0
2014-Dec-08 10:33N 53°55' E 009°11'31 7.7
2014-Dec-08 06:32N 54°19' E 009°43'7 6.6
2014-Dec-08 05:33N 54°21' E 009°54'8 7.6
2014-Dec-08 04:33N 54°22' E 010°07'2 2.4
2014-Dec-08 03:33N 54°23' E 010°11'15 0.4
2014-Dec-06 10:33N 54°32' E 010°31'1010.2
2014-Dec-06 09:33N 54°28' E 010°16'7 7.0
2014-Dec-06 08:33N 54°22' E 010°08'1 1.0
2014-Dec-06 07:33N 54°22' E 010°07'6 5.9
2014-Dec-06 06:33N 54°20' E 009°57'36 7.1
2014-Dec-06 01:33N 53°56' E 009°13'4 3.6
2014-Dec-06 00:33N 53°54' E 009°09'5 5.1
2014-Dec-05 23:33N 53°52' E 009°17'8 7.9
2014-Dec-05 22:33N 53°46' E 009°24'7 0.5
2014-Dec-05 10:20N 53°40' E 009°30'7 9.4
2014-Dec-05 09:33N 53°46' E 009°24'1110.8
2014-Dec-05 08:33N 53°53' E 009°09'1110.8
2014-Dec-05 07:33N 53°50' E 008°51'9 9.2
2014-Dec-05 06:33N 53°56' E 008°39'10 9.6
2014-Dec-05 05:33N 53°59' E 008°24'1010.0
2014-Dec-05 04:33N 53°59' E 008°07'76 9.4
2014-Dec-04 20:32N 53°40' E 006°02'1010.6
2014-Dec-04 19:33N 53°37' E 005°46'1110.7
2014-Dec-04 18:33N 53°33' E 005°28'1110.8
2014-Dec-04 17:33N 53°30' E 005°11'1110.9
2014-Dec-04 16:33N 53°26' E 004°54'2511.0
2014-Dec-04 14:17N 53°06' E 004°29'95 8.9
2014-Dec-04 03:32N 51°41' E 003°18'1010.5
2014-Dec-04 02:33N 51°32' E 003°26'1010.1
2014-Dec-04 01:33N 51°25' E 003°37'1110.5
2014-Dec-04 00:34N 51°21' E 003°53'7 7.1
2014-Dec-03 23:33N 51°26' E 004°02'6 5.5
2014-Dec-03 22:33N 51°23' E 004°09'5 5.3
2014-Dec-03 21:33N 51°21' E 004°17'0 0.1
2014-Dec-03 20:33N 51°21' E 004°17'1 0.4
2014-Dec-03 18:28N 51°22' E 004°17'0 0.0
2014-Dec-03 17:21N 51°22' E 004°17'0 0.0
2014-Dec-03 16:08N 51°22' E 004°17'0 0.0
2014-Dec-03 15:06N 51°22' E 004°17'0 0.0
2014-Dec-03 14:23N 51°22' E 004°17'0 0.0
2014-Dec-03 13:26N 51°22' E 004°17'0 0.0
2014-Dec-03 12:32N 51°22' E 004°17'0 0.0
2014-Dec-03 09:28N 51°22' E 004°17'0 0.0
2014-Dec-03 07:13N 51°22' E 004°17'0 0.0
2014-Dec-03 06:28N 51°22' E 004°17'0 0.0
2014-Dec-03 05:24N 51°22' E 004°17'0 0.0
2014-Dec-03 04:31N 51°22' E 004°17'0 0.0
2014-Dec-03 03:27N 51°22' E 004°17'0 0.0
2014-Dec-03 02:31N 51°22' E 004°17'0 0.0
2014-Dec-03 01:28N 51°22' E 004°17'0 0.0
2014-Dec-03 00:30N 51°22' E 004°17'0 0.0
2014-Dec-02 23:29N 51°22' E 004°17'0 0.0
2014-Dec-02 22:22N 51°22' E 004°17'0 0.0
2014-Dec-02 21:18N 51°22' E 004°17'0 0.0
2014-Dec-02 20:32N 51°22' E 004°17'0 0.0
2014-Dec-02 19:21N 51°22' E 004°17'0 0.0
2014-Dec-02 18:15N 51°22' E 004°17'0 0.0
2014-Dec-02 16:33N 51°22' E 004°17'0 0.0
2014-Dec-02 12:10N 51°22' E 004°17'0 0.0
2014-Dec-02 11:04N 51°22' E 004°17'  
Track history (hours):
 
Tides and Currents Weather Stations Pressure Air Temp Water Temp Dewpoint Dewpoint Depression Visibility Wind Speed Wind Dir Waves Ship Positions

Pride

Last reported at 2014-Dec-12 09:16 UTC. Time now 2014-Dec-21 05:28 UTC.
Position N 54°19' E 004°59'.
Warning: this ship's position is 8 days out of date.

Length 88 m; draft 4.3 m.

Type: Ship. MMSI: 236166000.

Date/timePositionNaut miles runAvg speedWind from/ knotsBaromVisibWave heightAir tempDewpointWater temp
2014-Dec-12 09:16N 54°19' E 004°59'7 9.2
2014-Dec-12 08:31N 54°12' E 004°58'9 9.3
2014-Dec-12 07:32N 54°03' E 004°56'27 9.0
2014-Dec-12 04:31N 53°36' E 004°49'9 8.8
2014-Dec-12 03:33N 53°28' E 004°45'26 8.4
2014-Dec-12 00:30N 53°04' E 004°27'8 8.4
2014-Dec-11 23:33N 52°57' E 004°21'8 8.2
2014-Dec-11 22:34N 52°50' E 004°15'9 8.9
2014-Dec-11 21:33N 52°43' E 004°05'10 9.4
2014-Dec-11 20:28N 52°36' E 003°53'30 4.7
2014-Dec-11 14:04N 52°07' E 003°36'3 3.9
2014-Dec-11 13:24N 52°06' E 003°40'3 3.8
2014-Dec-11 12:33N 52°05' E 003°45'4 4.3
2014-Dec-11 11:33N 52°04' E 003°52'5 4.5
2014-Dec-11 10:33N 52°02' E 003°58'7 7.1
2014-Dec-11 09:33N 51°58' E 004°08'10 9.9
2014-Dec-11 08:33N 51°54' E 004°23'1 1.4
2014-Dec-11 07:30N 51°55' E 004°25'0 0.0
2014-Dec-11 06:31N 51°55' E 004°25'0 0.0
2014-Dec-11 05:27N 51°55' E 004°25'0 0.0
2014-Dec-11 04:31N 51°55' E 004°25'0 0.0
2014-Dec-11 03:29N 51°55' E 004°25'0 0.0
2014-Dec-11 02:33N 51°55' E 004°25'1 1.0
2014-Dec-11 01:34N 51°54' E 004°26'2 1.6
2014-Dec-11 00:34N 51°54' E 004°24'3 2.7
2014-Dec-10 23:28N 51°54' E 004°28'0 0.0
2014-Dec-10 22:31N 51°54' E 004°28'0 0.0
2014-Dec-10 21:27N 51°54' E 004°28'0 0.0
2014-Dec-10 20:30N 51°54' E 004°28'0 0.0
2014-Dec-10 19:29N 51°54' E 004°28'0 0.0
2014-Dec-10 18:33N 51°54' E 004°28'0 0.0
2014-Dec-10 17:27N 51°54' E 004°28'0 0.0
2014-Dec-10 16:32N 51°54' E 004°28'0 0.0
2014-Dec-10 15:33N 51°54' E 004°28'0 0.0
2014-Dec-10 14:29N 51°54' E 004°28'0 0.1
2014-Dec-10 13:32N 51°54' E 004°28'1 1.5
2014-Dec-10 12:33N 51°54' E 004°26'0 0.0
2014-Dec-10 11:26N 51°54' E 004°26'0 0.0
2014-Dec-10 10:32N 51°54' E 004°26'0 0.0
2014-Dec-10 09:33N 51°54' E 004°26'0 0.0
2014-Dec-10 08:32N 51°54' E 004°26'0 0.0
2014-Dec-10 07:30N 51°54' E 004°26'0 0.0
2014-Dec-10 06:31N 51°54' E 004°26'0 0.0
2014-Dec-10 05:27N 51°54' E 004°26'0 0.0
2014-Dec-10 04:32N 51°54' E 004°26'0 0.0
2014-Dec-10 03:28N 51°54' E 004°26'0 0.0
2014-Dec-10 02:32N 51°54' E 004°26'0 0.0
2014-Dec-10 01:33N 51°54' E 004°26'0 0.0
2014-Dec-10 00:29N 51°54' E 004°26'0 0.0
2014-Dec-09 23:26N 51°54' E 004°26'0 0.0
2014-Dec-09 22:32N 51°54' E 004°26'0 0.0
2014-Dec-09 21:28N 51°54' E 004°26'0 0.0
2014-Dec-09 20:24N 51°54' E 004°26'0 0.0
2014-Dec-09 19:27N 51°54' E 004°26'0 0.0
2014-Dec-09 18:30N 51°54' E 004°26'3 3.5
2014-Dec-09 17:33N 51°54' E 004°20'1010.2
2014-Dec-09 16:33N 51°59' E 004°06'1110.6
2014-Dec-09 15:33N 52°02' E 003°50'10 8.5
2014-Dec-09 14:23N 52°12' E 003°46'2110.4
2014-Dec-09 12:23N 52°32' E 003°52'1011.2
2014-Dec-09 11:28N 52°42' E 003°55'57 9.5
2014-Dec-09 05:29N 53°31' E 004°44'8 9.0
2014-Dec-09 04:33N 53°33' E 004°58'1010.1
2014-Dec-09 03:33N 53°37' E 005°13'1110.6
2014-Dec-09 02:33N 53°41' E 005°30'1010.3
2014-Dec-09 01:33N 53°44' E 005°47'62 8.7
2014-Dec-08 18:31N 53°60' E 007°27'9 9.8
2014-Dec-08 17:33N 54°02' E 007°43'10 9.6
2014-Dec-08 16:33N 54°02' E 007°60'10 9.7
2014-Dec-08 15:33N 54°01' E 008°16'1111.2
2014-Dec-08 14:33N 53°58' E 008°35'9 9.5
2014-Dec-08 13:33N 53°51' E 008°46'8 8.1
2014-Dec-08 12:33N 53°51' E 008°59'6 5.9
2014-Dec-08 11:32N 53°54' E 009°09'2 2.0
2014-Dec-08 10:33N 53°55' E 009°11'31 7.7
2014-Dec-08 06:32N 54°19' E 009°43'7 6.6
2014-Dec-08 05:33N 54°21' E 009°54'8 7.6
2014-Dec-08 04:33N 54°22' E 010°07'2 2.4
2014-Dec-08 03:33N 54°23' E 010°11'15 0.4
2014-Dec-06 10:33N 54°32' E 010°31'1010.2
2014-Dec-06 09:33N 54°28' E 010°16'7 7.0
2014-Dec-06 08:33N 54°22' E 010°08'1 1.0
2014-Dec-06 07:33N 54°22' E 010°07'6 5.9
2014-Dec-06 06:33N 54°20' E 009°57'36 7.1
2014-Dec-06 01:33N 53°56' E 009°13'4 3.6
2014-Dec-06 00:33N 53°54' E 009°09'5 5.1
2014-Dec-05 23:33N 53°52' E 009°17'8 7.9
2014-Dec-05 22:33N 53°46' E 009°24'7 0.5
2014-Dec-05 10:20N 53°40' E 009°30'7 9.4
2014-Dec-05 09:33N 53°46' E 009°24'1110.8
2014-Dec-05 08:33N 53°53' E 009°09'1110.8
2014-Dec-05 07:33N 53°50' E 008°51'9 9.2
2014-Dec-05 06:33N 53°56' E 008°39'10 9.6
2014-Dec-05 05:33N 53°59' E 008°24'1010.0
2014-Dec-05 04:33N 53°59' E 008°07'76 9.4
2014-Dec-04 20:32N 53°40' E 006°02'1010.6
2014-Dec-04 19:33N 53°37' E 005°46'1110.7
2014-Dec-04 18:33N 53°33' E 005°28'1110.8
2014-Dec-04 17:33N 53°30' E 005°11'1110.9
2014-Dec-04 16:33N 53°26' E 004°54'2511.0
2014-Dec-04 14:17N 53°06' E 004°29'95 8.9
2014-Dec-04 03:32N 51°41' E 003°18'1010.5
2014-Dec-04 02:33N 51°32' E 003°26'1010.1
2014-Dec-04 01:33N 51°25' E 003°37'1110.5
2014-Dec-04 00:34N 51°21' E 003°53'7 7.1
2014-Dec-03 23:33N 51°26' E 004°02'6 5.5
2014-Dec-03 22:33N 51°23' E 004°09'5 5.3
2014-Dec-03 21:33N 51°21' E 004°17'0 0.1
2014-Dec-03 20:33N 51°21' E 004°17'1 0.4
2014-Dec-03 18:28N 51°22' E 004°17'0 0.0
2014-Dec-03 17:21N 51°22' E 004°17'0 0.0
2014-Dec-03 16:08N 51°22' E 004°17'0 0.0
2014-Dec-03 15:06N 51°22' E 004°17'0 0.0
2014-Dec-03 14:23N 51°22' E 004°17'0 0.0
2014-Dec-03 13:26N 51°22' E 004°17'0 0.0
2014-Dec-03 12:32N 51°22' E 004°17'0 0.0
2014-Dec-03 09:28N 51°22' E 004°17'0 0.0
2014-Dec-03 07:13N 51°22' E 004°17'0 0.0
2014-Dec-03 06:28N 51°22' E 004°17'0 0.0
2014-Dec-03 05:24N 51°22' E 004°17'0 0.0
2014-Dec-03 04:31N 51°22' E 004°17'0 0.0
2014-Dec-03 03:27N 51°22' E 004°17'0 0.0
2014-Dec-03 02:31N 51°22' E 004°17'0 0.0
2014-Dec-03 01:28N 51°22' E 004°17'0 0.0
2014-Dec-03 00:30N 51°22' E 004°17'0 0.0
2014-Dec-02 23:29N 51°22' E 004°17'0 0.0
2014-Dec-02 22:22N 51°22' E 004°17'0 0.0
2014-Dec-02 21:18N 51°22' E 004°17'0 0.0
2014-Dec-02 20:32N 51°22' E 004°17'0 0.0
2014-Dec-02 19:21N 51°22' E 004°17'0 0.0
2014-Dec-02 18:15N 51°22' E 004°17'0 0.0
2014-Dec-02 16:33N 51°22' E 004°17'0 0.0
2014-Dec-02 12:10N 51°22' E 004°17'0 0.0
2014-Dec-02 11:04N 51°22' E 004°17'  

Dump ship's entire track history